sensor_id;sensor_type;location;lat;lon;timestamp;temperature;humidity
5846;DHT22;2949;50.778;7.094;2023-07-13T00:02:16;16.40;99.90
5846;DHT22;2949;50.778;7.094;2023-07-13T00:04:41;16.40;99.90
5846;DHT22;2949;50.778;7.094;2023-07-13T00:07:08;16.50;99.90
5846;DHT22;2949;50.778;7.094;2023-07-13T00:09:33;16.50;99.90
5846;DHT22;2949;50.778;7.094;2023-07-13T00:12:00;16.40;99.90
5846;DHT22;2949;50.778;7.094;2023-07-13T00:14:27;16.30;99.90
5846;DHT22;2949;50.778;7.094;2023-07-13T00:16:53;16.30;99.90
5846;DHT22;2949;50.778;7.094;2023-07-13T00:19:19;16.20;99.90
5846;DHT22;2949;50.778;7.094;2023-07-13T00:21:45;16.20;99.90
5846;DHT22;2949;50.778;7.094;2023-07-13T00:24:14;16.20;99.90
5846;DHT22;2949;50.778;7.094;2023-07-13T00:26:40;16.10;99.90
5846;DHT22;2949;50.778;7.094;2023-07-13T00:29:06;16.10;99.90
5846;DHT22;2949;50.778;7.094;2023-07-13T00:31:34;16.00;99.90
5846;DHT22;2949;50.778;7.094;2023-07-13T00:34:01;15.90;99.90
5846;DHT22;2949;50.778;7.094;2023-07-13T00:36:27;15.90;99.90
5846;DHT22;2949;50.778;7.094;2023-07-13T00:38:52;15.80;99.90
5846;DHT22;2949;50.778;7.094;2023-07-13T00:41:18;15.90;99.90
5846;DHT22;2949;50.778;7.094;2023-07-13T00:43:44;15.80;99.90
5846;DHT22;2949;50.778;7.094;2023-07-13T00:46:20;15.80;99.90
5846;DHT22;2949;50.778;7.094;2023-07-13T00:48:48;15.80;99.90
5846;DHT22;2949;50.778;7.094;2023-07-13T00:51:17;15.80;99.90
5846;DHT22;2949;50.778;7.094;2023-07-13T00:53:43;15.70;99.90
5846;DHT22;2949;50.778;7.094;2023-07-13T00:56:08;15.70;99.90
5846;DHT22;2949;50.778;7.094;2023-07-13T00:58:35;15.70;99.90
5846;DHT22;2949;50.778;7.094;2023-07-13T01:01:01;15.80;99.90
5846;DHT22;2949;50.778;7.094;2023-07-13T01:03:26;15.80;99.90
5846;DHT22;2949;50.778;7.094;2023-07-13T01:05:52;15.80;99.90
5846;DHT22;2949;50.778;7.094;2023-07-13T01:08:20;15.80;99.90
5846;DHT22;2949;50.778;7.094;2023-07-13T01:10:56;15.80;99.90
5846;DHT22;2949;50.778;7.094;2023-07-13T01:13:22;15.80;99.90
5846;DHT22;2949;50.778;7.094;2023-07-13T01:15:50;15.80;99.90
5846;DHT22;2949;50.778;7.094;2023-07-13T01:18:20;15.80;99.90
5846;DHT22;2949;50.778;7.094;2023-07-13T01:20:57;15.80;99.90
5846;DHT22;2949;50.778;7.094;2023-07-13T01:23:24;15.80;99.90
5846;DHT22;2949;50.778;7.094;2023-07-13T01:25:50;15.80;99.90
5846;DHT22;2949;50.778;7.094;2023-07-13T01:28:16;15.80;99.90
5846;DHT22;2949;50.778;7.094;2023-07-13T01:30:43;15.60;99.90
5846;DHT22;2949;50.778;7.094;2023-07-13T01:33:12;15.60;99.90
5846;DHT22;2949;50.778;7.094;2023-07-13T01:35:37;15.50;99.90
5846;DHT22;2949;50.778;7.094;2023-07-13T01:38:04;15.50;99.90
5846;DHT22;2949;50.778;7.094;2023-07-13T01:40:30;15.40;99.90
5846;DHT22;2949;50.778;7.094;2023-07-13T01:42:56;15.40;99.90
5846;DHT22;2949;50.778;7.094;2023-07-13T01:45:21;15.40;99.90
5846;DHT22;2949;50.778;7.094;2023-07-13T01:47:47;15.40;99.90
5846;DHT22;2949;50.778;7.094;2023-07-13T01:50:12;15.40;99.90
5846;DHT22;2949;50.778;7.094;2023-07-13T01:52:38;15.40;99.90
5846;DHT22;2949;50.778;7.094;2023-07-13T01:55:04;15.40;99.90
5846;DHT22;2949;50.778;7.094;2023-07-13T01:57:29;15.50;99.90
5846;DHT22;2949;50.778;7.094;2023-07-13T01:59:55;15.50;99.90
5846;DHT22;2949;50.778;7.094;2023-07-13T02:02:20;15.60;99.90
5846;DHT22;2949;50.778;7.094;2023-07-13T02:04:46;15.70;99.90
5846;DHT22;2949;50.778;7.094;2023-07-13T02:07:11;15.70;99.90
5846;DHT22;2949;50.778;7.094;2023-07-13T02:09:37;15.70;99.90
5846;DHT22;2949;50.778;7.094;2023-07-13T02:12:03;15.60;99.90
5846;DHT22;2949;50.778;7.094;2023-07-13T02:14:28;15.60;99.90
5846;DHT22;2949;50.778;7.094;2023-07-13T02:16:54;15.60;99.90
5846;DHT22;2949;50.778;7.094;2023-07-13T02:19:19;15.50;99.90
5846;DHT22;2949;50.778;7.094;2023-07-13T02:21:45;15.60;99.90
5846;DHT22;2949;50.778;7.094;2023-07-13T02:24:10;15.60;99.90
5846;DHT22;2949;50.778;7.094;2023-07-13T02:26:43;15.60;99.90
5846;DHT22;2949;50.778;7.094;2023-07-13T02:29:08;15.70;99.90
5846;DHT22;2949;50.778;7.094;2023-07-13T02:31:34;15.70;99.90
5846;DHT22;2949;50.778;7.094;2023-07-13T02:34:01;15.70;99.90
5846;DHT22;2949;50.778;7.094;2023-07-13T02:36:27;15.80;99.90
5846;DHT22;2949;50.778;7.094;2023-07-13T02:38:52;15.80;99.90
5846;DHT22;2949;50.778;7.094;2023-07-13T02:41:18;15.80;99.90
5846;DHT22;2949;50.778;7.094;2023-07-13T02:43:44;15.80;99.90
5846;DHT22;2949;50.778;7.094;2023-07-13T02:46:09;15.90;99.90
5846;DHT22;2949;50.778;7.094;2023-07-13T02:48:36;16.00;99.90
5846;DHT22;2949;50.778;7.094;2023-07-13T02:51:02;16.10;99.90
5846;DHT22;2949;50.778;7.094;2023-07-13T02:53:28;16.10;99.90
5846;DHT22;2949;50.778;7.094;2023-07-13T02:55:53;16.00;99.90
5846;DHT22;2949;50.778;7.094;2023-07-13T02:58:19;16.00;99.90
5846;DHT22;2949;50.778;7.094;2023-07-13T03:00:47;16.00;99.90
5846;DHT22;2949;50.778;7.094;2023-07-13T03:03:13;16.00;99.90
5846;DHT22;2949;50.778;7.094;2023-07-13T03:05:41;15.90;99.90
5846;DHT22;2949;50.778;7.094;2023-07-13T03:08:07;15.90;99.90
5846;DHT22;2949;50.778;7.094;2023-07-13T03:10:33;15.90;99.90
5846;DHT22;2949;50.778;7.094;2023-07-13T03:12:59;15.80;99.90
5846;DHT22;2949;50.778;7.094;2023-07-13T03:15:24;15.80;99.90
5846;DHT22;2949;50.778;7.094;2023-07-13T03:17:50;15.80;99.90
5846;DHT22;2949;50.778;7.094;2023-07-13T03:20:15;15.70;99.90
5846;DHT22;2949;50.778;7.094;2023-07-13T03:22:41;15.70;99.90
5846;DHT22;2949;50.778;7.094;2023-07-13T03:25:07;15.70;99.90
5846;DHT22;2949;50.778;7.094;2023-07-13T03:27:36;15.70;99.90
5846;DHT22;2949;50.778;7.094;2023-07-13T03:30:03;15.60;99.90
5846;DHT22;2949;50.778;7.094;2023-07-13T03:32:28;15.60;99.90
5846;DHT22;2949;50.778;7.094;2023-07-13T03:34:54;15.60;99.90
5846;DHT22;2949;50.778;7.094;2023-07-13T03:37:19;15.60;99.90
5846;DHT22;2949;50.778;7.094;2023-07-13T03:39:45;15.70;99.90
5846;DHT22;2949;50.778;7.094;2023-07-13T03:42:11;15.70;99.90
5846;DHT22;2949;50.778;7.094;2023-07-13T03:44:36;15.80;99.90
5846;DHT22;2949;50.778;7.094;2023-07-13T03:47:02;15.90;99.90
5846;DHT22;2949;50.778;7.094;2023-07-13T03:49:28;15.90;99.90
5846;DHT22;2949;50.778;7.094;2023-07-13T03:51:53;16.00;99.90
5846;DHT22;2949;50.778;7.094;2023-07-13T03:54:19;16.00;99.90
5846;DHT22;2949;50.778;7.094;2023-07-13T03:56:44;16.10;99.90
5846;DHT22;2949;50.778;7.094;2023-07-13T03:59:10;16.20;99.90
5846;DHT22;2949;50.778;7.094;2023-07-13T04:01:35;16.20;99.90
5846;DHT22;2949;50.778;7.094;2023-07-13T04:04:01;16.20;99.90
5846;DHT22;2949;50.778;7.094;2023-07-13T04:06:28;16.20;99.90
5846;DHT22;2949;50.778;7.094;2023-07-13T04:08:56;16.20;99.90
5846;DHT22;2949;50.778;7.094;2023-07-13T04:11:24;16.30;99.90
5846;DHT22;2949;50.778;7.094;2023-07-13T04:13:50;16.30;99.90
5846;DHT22;2949;50.778;7.094;2023-07-13T04:16:16;16.30;99.90
5846;DHT22;2949;50.778;7.094;2023-07-13T04:18:42;16.20;99.90
5846;DHT22;2949;50.778;7.094;2023-07-13T04:21:08;16.20;99.90
5846;DHT22;2949;50.778;7.094;2023-07-13T04:23:35;16.20;99.90
5846;DHT22;2949;50.778;7.094;2023-07-13T04:26:00;16.20;99.90
5846;DHT22;2949;50.778;7.094;2023-07-13T04:28:26;16.30;99.90
5846;DHT22;2949;50.778;7.094;2023-07-13T04:30:53;16.30;99.90
5846;DHT22;2949;50.778;7.094;2023-07-13T04:33:18;16.40;99.90
5846;DHT22;2949;50.778;7.094;2023-07-13T04:35:48;16.50;99.90
5846;DHT22;2949;50.778;7.094;2023-07-13T04:38:14;16.60;99.90
5846;DHT22;2949;50.778;7.094;2023-07-13T04:40:44;16.60;99.90
5846;DHT22;2949;50.778;7.094;2023-07-13T04:43:10;16.60;99.90
5846;DHT22;2949;50.778;7.094;2023-07-13T04:45:35;16.60;99.90
5846;DHT22;2949;50.778;7.094;2023-07-13T04:48:01;16.70;99.90
5846;DHT22;2949;50.778;7.094;2023-07-13T04:50:27;16.70;99.90
5846;DHT22;2949;50.778;7.094;2023-07-13T04:52:52;16.70;99.90
5846;DHT22;2949;50.778;7.094;2023-07-13T04:55:19;16.60;99.90
5846;DHT22;2949;50.778;7.094;2023-07-13T04:57:45;16.70;99.90
5846;DHT22;2949;50.778;7.094;2023-07-13T05:00:11;16.70;99.90
5846;DHT22;2949;50.778;7.094;2023-07-13T05:02:38;16.70;99.90
5846;DHT22;2949;50.778;7.094;2023-07-13T05:05:04;16.80;99.90
5846;DHT22;2949;50.778;7.094;2023-07-13T05:07:30;16.80;99.90
5846;DHT22;2949;50.778;7.094;2023-07-13T05:09:58;16.90;99.90
5846;DHT22;2949;50.778;7.094;2023-07-13T05:12:24;17.00;99.90
5846;DHT22;2949;50.778;7.094;2023-07-13T05:14:49;17.00;99.90
5846;DHT22;2949;50.778;7.094;2023-07-13T05:17:15;17.10;99.90
5846;DHT22;2949;50.778;7.094;2023-07-13T05:19:41;17.20;99.90
5846;DHT22;2949;50.778;7.094;2023-07-13T05:22:06;17.30;99.90
5846;DHT22;2949;50.778;7.094;2023-07-13T05:24:32;17.40;99.90
5846;DHT22;2949;50.778;7.094;2023-07-13T05:26:57;17.40;99.90
5846;DHT22;2949;50.778;7.094;2023-07-13T05:29:23;17.50;99.90
5846;DHT22;2949;50.778;7.094;2023-07-13T05:31:49;17.60;99.90
5846;DHT22;2949;50.778;7.094;2023-07-13T05:34:14;17.80;99.90
5846;DHT22;2949;50.778;7.094;2023-07-13T05:36:40;18.10;99.90
5846;DHT22;2949;50.778;7.094;2023-07-13T05:39:06;18.40;99.90
5846;DHT22;2949;50.778;7.094;2023-07-13T05:41:31;18.80;99.90
5846;DHT22;2949;50.778;7.094;2023-07-13T05:43:57;19.40;99.90
5846;DHT22;2949;50.778;7.094;2023-07-13T05:46:22;21.20;99.90
5846;DHT22;2949;50.778;7.094;2023-07-13T05:48:48;23.10;99.90
5846;DHT22;2949;50.778;7.094;2023-07-13T05:51:14;24.30;99.40
5846;DHT22;2949;50.778;7.094;2023-07-13T05:53:39;25.20;96.80
5846;DHT22;2949;50.778;7.094;2023-07-13T05:56:05;27.00;94.40
5846;DHT22;2949;50.778;7.094;2023-07-13T05:58:31;28.50;90.10
5846;DHT22;2949;50.778;7.094;2023-07-13T06:01:02;29.20;83.60
5846;DHT22;2949;50.778;7.094;2023-07-13T06:03:28;29.20;80.60
5846;DHT22;2949;50.778;7.094;2023-07-13T06:05:54;28.90;79.90
5846;DHT22;2949;50.778;7.094;2023-07-13T06:08:20;28.60;79.10
5846;DHT22;2949;50.778;7.094;2023-07-13T06:10:45;29.00;77.60
5846;DHT22;2949;50.778;7.094;2023-07-13T06:13:11;29.20;76.50
5846;DHT22;2949;50.778;7.094;2023-07-13T06:15:36;29.90;73.80
5846;DHT22;2949;50.778;7.094;2023-07-13T06:18:02;28.50;75.00
5846;DHT22;2949;50.778;7.094;2023-07-13T06:20:28;27.10;77.00
5846;DHT22;2949;50.778;7.094;2023-07-13T06:22:54;27.50;79.70
5846;DHT22;2949;50.778;7.094;2023-07-13T06:25:20;28.80;78.20
5846;DHT22;2949;50.778;7.094;2023-07-13T06:27:45;29.70;74.40
5846;DHT22;2949;50.778;7.094;2023-07-13T06:30:11;30.20;73.20
5846;DHT22;2949;50.778;7.094;2023-07-13T06:32:37;31.40;69.50
5846;DHT22;2949;50.778;7.094;2023-07-13T06:35:03;32.10;67.50
5846;DHT22;2949;50.778;7.094;2023-07-13T06:37:29;32.40;65.70
5846;DHT22;2949;50.778;7.094;2023-07-13T06:39:54;33.60;61.60
5846;DHT22;2949;50.778;7.094;2023-07-13T06:42:20;33.00;60.20
5846;DHT22;2949;50.778;7.094;2023-07-13T06:44:45;30.60;63.30
5846;DHT22;2949;50.778;7.094;2023-07-13T06:47:11;29.80;66.30
5846;DHT22;2949;50.778;7.094;2023-07-13T06:49:36;30.10;66.20
5846;DHT22;2949;50.778;7.094;2023-07-13T06:52:02;30.70;64.60
5846;DHT22;2949;50.778;7.094;2023-07-13T06:54:27;31.80;63.10
5846;DHT22;2949;50.778;7.094;2023-07-13T06:56:53;32.40;62.50
5846;DHT22;2949;50.778;7.094;2023-07-13T06:59:19;32.20;60.80
5846;DHT22;2949;50.778;7.094;2023-07-13T07:01:44;32.00;61.20
5846;DHT22;2949;50.778;7.094;2023-07-13T07:04:10;33.00;60.60
5846;DHT22;2949;50.778;7.094;2023-07-13T07:06:35;34.50;57.60
5846;DHT22;2949;50.778;7.094;2023-07-13T07:09:01;35.10;56.70
5846;DHT22;2949;50.778;7.094;2023-07-13T07:11:26;35.90;53.80
5846;DHT22;2949;50.778;7.094;2023-07-13T07:13:53;36.10;53.40
5846;DHT22;2949;50.778;7.094;2023-07-13T07:16:20;36.10;52.70
5846;DHT22;2949;50.778;7.094;2023-07-13T07:18:46;36.30;51.90
5846;DHT22;2949;50.778;7.094;2023-07-13T07:21:12;36.70;51.20
5846;DHT22;2949;50.778;7.094;2023-07-13T07:23:38;35.50;51.60
5846;DHT22;2949;50.778;7.094;2023-07-13T07:26:04;35.20;51.50
5846;DHT22;2949;50.778;7.094;2023-07-13T07:28:30;35.30;51.80
5846;DHT22;2949;50.778;7.094;2023-07-13T07:30:57;35.10;51.50
5846;DHT22;2949;50.778;7.094;2023-07-13T07:33:24;34.80;51.70
5846;DHT22;2949;50.778;7.094;2023-07-13T07:35:50;33.90;52.40
5846;DHT22;2949;50.778;7.094;2023-07-13T07:38:15;32.70;53.00
5846;DHT22;2949;50.778;7.094;2023-07-13T07:40:42;31.00;56.00
5846;DHT22;2949;50.778;7.094;2023-07-13T07:43:09;30.60;56.40
5846;DHT22;2949;50.778;7.094;2023-07-13T07:45:35;31.10;56.80
5846;DHT22;2949;50.778;7.094;2023-07-13T07:48:00;31.90;57.80
5846;DHT22;2949;50.778;7.094;2023-07-13T07:50:27;33.60;54.50
5846;DHT22;2949;50.778;7.094;2023-07-13T07:52:53;34.50;52.90
5846;DHT22;2949;50.778;7.094;2023-07-13T07:55:19;35.20;51.50
5846;DHT22;2949;50.778;7.094;2023-07-13T07:57:44;34.30;52.40
5846;DHT22;2949;50.778;7.094;2023-07-13T08:00:10;34.30;53.10
5846;DHT22;2949;50.778;7.094;2023-07-13T08:02:36;34.80;51.80
5846;DHT22;2949;50.778;7.094;2023-07-13T08:05:01;34.00;52.40
5846;DHT22;2949;50.778;7.094;2023-07-13T08:07:27;32.80;53.70
5846;DHT22;2949;50.778;7.094;2023-07-13T08:09:53;31.90;56.40
5846;DHT22;2949;50.778;7.094;2023-07-13T08:12:19;32.70;55.00
5846;DHT22;2949;50.778;7.094;2023-07-13T08:14:44;33.10;54.50
5846;DHT22;2949;50.778;7.094;2023-07-13T08:17:10;33.60;53.70
5846;DHT22;2949;50.778;7.094;2023-07-13T08:19:35;33.90;53.50
5846;DHT22;2949;50.778;7.094;2023-07-13T08:22:01;34.70;51.80
5846;DHT22;2949;50.778;7.094;2023-07-13T08:24:26;35.30;51.80
5846;DHT22;2949;50.778;7.094;2023-07-13T08:26:52;36.40;49.80
5846;DHT22;2949;50.778;7.094;2023-07-13T08:29:18;36.10;49.30
5846;DHT22;2949;50.778;7.094;2023-07-13T08:31:43;35.50;49.30
5846;DHT22;2949;50.778;7.094;2023-07-13T08:34:10;35.30;49.60
5846;DHT22;2949;50.778;7.094;2023-07-13T08:36:35;35.90;48.20
5846;DHT22;2949;50.778;7.094;2023-07-13T08:39:01;36.40;48.20
5846;DHT22;2949;50.778;7.094;2023-07-13T08:41:28;36.20;47.90
5846;DHT22;2949;50.778;7.094;2023-07-13T08:43:59;35.90;47.20
5846;DHT22;2949;50.778;7.094;2023-07-13T08:46:35;35.40;48.90
5846;DHT22;2949;50.778;7.094;2023-07-13T08:49:04;35.40;48.00
5846;DHT22;2949;50.778;7.094;2023-07-13T08:54:28;34.50;49.10
5846;DHT22;2949;50.778;7.094;2023-07-13T08:56:56;34.40;49.40
5846;DHT22;2949;50.778;7.094;2023-07-13T11:21:16;34.60;48.90
5846;DHT22;2949;50.778;7.094;2023-07-13T11:23:43;26.00;58.80
5846;DHT22;2949;50.778;7.094;2023-07-13T11:26:39;25.60;58.20
5846;DHT22;2949;50.778;7.094;2023-07-13T11:31:53;25.30;58.10
5846;DHT22;2949;50.778;7.094;2023-07-13T11:34:30;25.30;57.90
5846;DHT22;2949;50.778;7.094;2023-07-13T11:36:58;25.50;58.00
5846;DHT22;2949;50.778;7.094;2023-07-13T11:39:31;25.60;58.70
5846;DHT22;2949;50.778;7.094;2023-07-13T11:42:00;25.60;59.10
5846;DHT22;2949;50.778;7.094;2023-07-13T11:44:29;25.50;59.20
5846;DHT22;2949;50.778;7.094;2023-07-13T11:47:00;25.70;59.60
5846;DHT22;2949;50.778;7.094;2023-07-13T11:49:30;25.80;57.70
5846;DHT22;2949;50.778;7.094;2023-07-13T11:51:56;25.70;57.70
5846;DHT22;2949;50.778;7.094;2023-07-13T13:43:23;25.60;58.80
5846;DHT22;2949;50.778;7.094;2023-07-13T13:45:56;27.50;57.50
5846;DHT22;2949;50.778;7.094;2023-07-13T13:48:30;27.40;56.50
5846;DHT22;2949;50.778;7.094;2023-07-13T13:50:57;27.30;58.00
5846;DHT22;2949;50.778;7.094;2023-07-13T13:53:23;27.10;57.00
5846;DHT22;2949;50.778;7.094;2023-07-13T13:55:51;26.90;57.80
5846;DHT22;2949;50.778;7.094;2023-07-13T13:58:18;26.60;58.50
5846;DHT22;2949;50.778;7.094;2023-07-13T14:00:44;26.20;58.40
5846;DHT22;2949;50.778;7.094;2023-07-13T14:03:20;26.00;58.40
5846;DHT22;2949;50.778;7.094;2023-07-13T14:05:48;25.90;59.50
5846;DHT22;2949;50.778;7.094;2023-07-13T14:08:15;26.10;59.70
5846;DHT22;2949;50.778;7.094;2023-07-13T14:10:42;26.00;59.90
5846;DHT22;2949;50.778;7.094;2023-07-13T14:13:26;25.80;59.00
5846;DHT22;2949;50.778;7.094;2023-07-13T14:15:53;25.60;59.30
5846;DHT22;2949;50.778;7.094;2023-07-13T14:18:19;25.60;58.70
5846;DHT22;2949;50.778;7.094;2023-07-13T14:20:47;25.70;59.40
5846;DHT22;2949;50.778;7.094;2023-07-13T14:23:14;26.00;58.70
5846;DHT22;2949;50.778;7.094;2023-07-13T14:25:41;26.30;58.40
5846;DHT22;2949;50.778;7.094;2023-07-13T14:28:20;26.90;57.20
5846;DHT22;2949;50.778;7.094;2023-07-13T14:30:47;27.10;56.60
5846;DHT22;2949;50.778;7.094;2023-07-13T14:33:13;26.70;57.30
5846;DHT22;2949;50.778;7.094;2023-07-13T14:35:39;26.30;57.60
5846;DHT22;2949;50.778;7.094;2023-07-13T14:38:04;26.30;58.80
5846;DHT22;2949;50.778;7.094;2023-07-13T14:40:31;26.40;57.70
5846;DHT22;2949;50.778;7.094;2023-07-13T14:42:58;26.30;57.30
5846;DHT22;2949;50.778;7.094;2023-07-13T14:45:24;26.30;58.40
5846;DHT22;2949;50.778;7.094;2023-07-13T14:47:50;26.60;58.60
5846;DHT22;2949;50.778;7.094;2023-07-13T14:50:18;26.60;57.00
5846;DHT22;2949;50.778;7.094;2023-07-13T14:52:45;26.50;57.00
5846;DHT22;2949;50.778;7.094;2023-07-13T14:55:14;26.50;56.70
5846;DHT22;2949;50.778;7.094;2023-07-13T14:57:39;26.50;56.50
5846;DHT22;2949;50.778;7.094;2023-07-13T15:00:13;26.50;56.80
5846;DHT22;2949;50.778;7.094;2023-07-13T15:02:45;26.40;57.50
5846;DHT22;2949;50.778;7.094;2023-07-13T15:05:21;26.60;57.20
5846;DHT22;2949;50.778;7.094;2023-07-13T15:07:48;26.90;56.70
5846;DHT22;2949;50.778;7.094;2023-07-13T15:10:24;27.20;56.80
5846;DHT22;2949;50.778;7.094;2023-07-13T15:13:00;27.20;55.90
5846;DHT22;2949;50.778;7.094;2023-07-13T15:15:30;26.90;55.70
5846;DHT22;2949;50.778;7.094;2023-07-13T15:17:58;26.90;56.20
5846;DHT22;2949;50.778;7.094;2023-07-13T15:20:34;26.90;55.20
5846;DHT22;2949;50.778;7.094;2023-07-13T15:23:01;26.90;54.90
5846;DHT22;2949;50.778;7.094;2023-07-13T15:25:28;27.00;54.60
5846;DHT22;2949;50.778;7.094;2023-07-13T15:27:56;27.20;55.30
5846;DHT22;2949;50.778;7.094;2023-07-13T15:30:23;26.80;55.50
5846;DHT22;2949;50.778;7.094;2023-07-13T15:32:50;26.80;56.40
5846;DHT22;2949;50.778;7.094;2023-07-13T15:35:16;26.80;56.20
5846;DHT22;2949;50.778;7.094;2023-07-13T15:37:42;26.70;56.60
5846;DHT22;2949;50.778;7.094;2023-07-13T15:40:09;26.80;56.30
5846;DHT22;2949;50.778;7.094;2023-07-13T15:42:35;26.60;55.30
5846;DHT22;2949;50.778;7.094;2023-07-13T15:45:02;26.70;56.00
5846;DHT22;2949;50.778;7.094;2023-07-13T15:47:27;26.60;55.40
5846;DHT22;2949;50.778;7.094;2023-07-13T15:49:53;26.50;56.00
5846;DHT22;2949;50.778;7.094;2023-07-13T15:52:22;26.60;56.20
5846;DHT22;2949;50.778;7.094;2023-07-13T15:54:49;26.30;56.40
5846;DHT22;2949;50.778;7.094;2023-07-13T15:57:16;26.40;57.30
5846;DHT22;2949;50.778;7.094;2023-07-13T15:59:42;26.40;56.60
5846;DHT22;2949;50.778;7.094;2023-07-13T16:02:19;26.20;56.70
5846;DHT22;2949;50.778;7.094;2023-07-13T16:04:46;25.70;57.50
5846;DHT22;2949;50.778;7.094;2023-07-13T16:07:14;25.30;58.60
5846;DHT22;2949;50.778;7.094;2023-07-13T16:09:41;25.10;59.40
5846;DHT22;2949;50.778;7.094;2023-07-13T16:12:13;25.20;59.70
5846;DHT22;2949;50.778;7.094;2023-07-13T16:14:39;25.30;59.20
5846;DHT22;2949;50.778;7.094;2023-07-13T16:17:10;25.20;59.50
5846;DHT22;2949;50.778;7.094;2023-07-13T16:19:35;25.20;60.20
5846;DHT22;2949;50.778;7.094;2023-07-13T16:22:02;25.10;60.60
5846;DHT22;2949;50.778;7.094;2023-07-13T16:24:31;25.10;61.40
5846;DHT22;2949;50.778;7.094;2023-07-13T16:26:57;25.10;61.30
5846;DHT22;2949;50.778;7.094;2023-07-13T16:29:28;25.00;62.60
5846;DHT22;2949;50.778;7.094;2023-07-13T16:31:59;25.00;62.10
5846;DHT22;2949;50.778;7.094;2023-07-13T16:34:26;24.90;62.10
5846;DHT22;2949;50.778;7.094;2023-07-13T16:36:53;24.80;62.30
5846;DHT22;2949;50.778;7.094;2023-07-13T16:39:19;24.60;62.70
5846;DHT22;2949;50.778;7.094;2023-07-13T16:41:45;24.50;64.40
5846;DHT22;2949;50.778;7.094;2023-07-13T16:44:16;24.20;67.50
5846;DHT22;2949;50.778;7.094;2023-07-13T16:46:44;24.10;69.50
5846;DHT22;2949;50.778;7.094;2023-07-13T16:49:38;23.80;70.90
5846;DHT22;2949;50.778;7.094;2023-07-13T16:52:04;23.50;72.50
5846;DHT22;2949;50.778;7.094;2023-07-13T16:54:31;23.20;74.50
5846;DHT22;2949;50.778;7.094;2023-07-13T16:56:58;23.00;75.80
5846;DHT22;2949;50.778;7.094;2023-07-13T16:59:31;23.00;76.60
5846;DHT22;2949;50.778;7.094;2023-07-13T17:01:58;22.90;76.70
5846;DHT22;2949;50.778;7.094;2023-07-13T17:04:26;22.90;77.60
5846;DHT22;2949;50.778;7.094;2023-07-13T17:06:53;23.00;77.60
5846;DHT22;2949;50.778;7.094;2023-07-13T17:09:21;23.10;77.30
5846;DHT22;2949;50.778;7.094;2023-07-13T17:11:49;23.20;76.90
5846;DHT22;2949;50.778;7.094;2023-07-13T17:14:19;23.30;76.80
5846;DHT22;2949;50.778;7.094;2023-07-13T17:16:55;23.40;77.20
5846;DHT22;2949;50.778;7.094;2023-07-13T17:19:28;23.40;77.00
5846;DHT22;2949;50.778;7.094;2023-07-13T17:21:54;23.40;77.40
5846;DHT22;2949;50.778;7.094;2023-07-13T17:24:24;23.40;77.40
5846;DHT22;2949;50.778;7.094;2023-07-13T17:26:51;23.30;76.70
5846;DHT22;2949;50.778;7.094;2023-07-13T17:29:19;23.20;77.00
5846;DHT22;2949;50.778;7.094;2023-07-13T17:31:45;23.00;77.70
5846;DHT22;2949;50.778;7.094;2023-07-13T17:34:12;23.00;78.30
5846;DHT22;2949;50.778;7.094;2023-07-13T17:36:39;23.00;78.90
5846;DHT22;2949;50.778;7.094;2023-07-13T17:39:13;22.90;79.30
5846;DHT22;2949;50.778;7.094;2023-07-13T17:41:39;22.90;79.20
5846;DHT22;2949;50.778;7.094;2023-07-13T17:44:09;22.90;79.60
5846;DHT22;2949;50.778;7.094;2023-07-13T17:46:35;22.90;79.80
5846;DHT22;2949;50.778;7.094;2023-07-13T17:49:00;22.90;79.70
5846;DHT22;2949;50.778;7.094;2023-07-13T17:51:26;22.80;80.10
5846;DHT22;2949;50.778;7.094;2023-07-13T17:53:53;22.70;80.00
5846;DHT22;2949;50.778;7.094;2023-07-13T17:56:21;22.70;80.10
5846;DHT22;2949;50.778;7.094;2023-07-13T17:58:48;22.60;80.80
5846;DHT22;2949;50.778;7.094;2023-07-13T18:01:17;22.60;81.10
5846;DHT22;2949;50.778;7.094;2023-07-13T18:03:45;22.50;80.50
5846;DHT22;2949;50.778;7.094;2023-07-13T18:06:35;22.40;81.00
5846;DHT22;2949;50.778;7.094;2023-07-13T18:09:10;22.40;81.90
5846;DHT22;2949;50.778;7.094;2023-07-13T18:11:38;22.30;82.70
5846;DHT22;2949;50.778;7.094;2023-07-13T18:14:03;22.30;82.30
5846;DHT22;2949;50.778;7.094;2023-07-13T18:16:30;22.20;82.60
5846;DHT22;2949;50.778;7.094;2023-07-13T18:18:58;22.10;83.60
5846;DHT22;2949;50.778;7.094;2023-07-13T18:21:24;22.00;83.80
5846;DHT22;2949;50.778;7.094;2023-07-13T18:23:51;22.00;84.00
5846;DHT22;2949;50.778;7.094;2023-07-13T18:26:19;21.90;83.50
5846;DHT22;2949;50.778;7.094;2023-07-13T18:28:45;21.80;84.30
5846;DHT22;2949;50.778;7.094;2023-07-13T18:31:21;21.70;84.70
5846;DHT22;2949;50.778;7.094;2023-07-13T18:33:50;21.70;85.10
5846;DHT22;2949;50.778;7.094;2023-07-13T18:36:19;21.70;85.60
5846;DHT22;2949;50.778;7.094;2023-07-13T18:38:45;21.70;85.90
5846;DHT22;2949;50.778;7.094;2023-07-13T18:41:12;21.60;85.60
5846;DHT22;2949;50.778;7.094;2023-07-13T18:43:39;21.50;85.50
5846;DHT22;2949;50.778;7.094;2023-07-13T18:46:31;21.50;85.90
5846;DHT22;2949;50.778;7.094;2023-07-13T18:48:59;21.40;86.00
5846;DHT22;2949;50.778;7.094;2023-07-13T18:51:25;21.40;86.70
5846;DHT22;2949;50.778;7.094;2023-07-13T18:53:51;21.30;87.10
5846;DHT22;2949;50.778;7.094;2023-07-13T18:56:17;21.30;87.50
5846;DHT22;2949;50.778;7.094;2023-07-13T18:58:43;21.30;88.80
5846;DHT22;2949;50.778;7.094;2023-07-13T19:03:41;21.20;88.60
5846;DHT22;2949;50.778;7.094;2023-07-13T19:06:09;21.10;89.20
5846;DHT22;2949;50.778;7.094;2023-07-13T19:08:38;21.10;89.70
5846;DHT22;2949;50.778;7.094;2023-07-13T19:11:14;21.00;89.60
5846;DHT22;2949;50.778;7.094;2023-07-13T19:13:40;21.00;90.00
